sensor_id;sensor_type;location;lat;lon;timestamp;P1;durP1;ratioP1;P2;durP2;ratioP2
25327;SDS011;13279;51.300;12.394;2022-07-25T03:17:57;6.03;;;4.30;;
25327;SDS011;13279;51.300;12.394;2022-07-25T03:20:25;6.17;;;4.50;;
25327;SDS011;13279;51.300;12.394;2022-07-25T03:22:53;5.30;;;4.60;;
25327;SDS011;13279;51.300;12.394;2022-07-25T03:25:20;7.40;;;4.43;;
25327;SDS011;13279;51.300;12.394;2022-07-25T03:27:48;4.70;;;4.20;;
25327;SDS011;13279;51.300;12.394;2022-07-25T03:30:15;9.63;;;4.47;;
25327;SDS011;13279;51.300;12.394;2022-07-25T03:32:43;7.47;;;5.30;;
25327;SDS011;13279;51.300;12.394;2022-07-25T03:35:12;6.40;;;4.50;;
25327;SDS011;13279;51.300;12.394;2022-07-25T03:37:40;4.80;;;4.40;;
25327;SDS011;13279;51.300;12.394;2022-07-25T03:40:08;6.50;;;4.53;;
25327;SDS011;13279;51.300;12.394;2022-07-25T03:42:36;7.07;;;4.43;;
25327;SDS011;13279;51.300;12.394;2022-07-25T03:45:04;7.70;;;5.10;;
25327;SDS011;13279;51.300;12.394;2022-07-25T03:47:33;7.23;;;4.90;;
25327;SDS011;13279;51.300;12.394;2022-07-25T03:50:00;6.73;;;4.80;;
25327;SDS011;13279;51.300;12.394;2022-07-25T03:52:29;5.90;;;5.30;;
25327;SDS011;13279;51.300;12.394;2022-07-25T03:54:57;7.77;;;4.80;;
25327;SDS011;13279;51.300;12.394;2022-07-25T03:57:24;5.37;;;4.63;;
25327;SDS011;13279;51.300;12.394;2022-07-25T03:59:52;6.70;;;4.90;;
25327;SDS011;13279;51.300;12.394;2022-07-25T04:02:19;5.77;;;5.27;;
25327;SDS011;13279;51.300;12.394;2022-07-25T04:08:40;6.63;;;5.40;;
25327;SDS011;13279;51.300;12.394;2022-07-25T04:11:07;10.40;;;5.33;;
25327;SDS011;13279;51.300;12.394;2022-07-25T04:13:35;7.53;;;5.30;;
25327;SDS011;13279;51.300;12.394;2022-07-25T04:16:02;7.17;;;5.07;;
25327;SDS011;13279;51.300;12.394;2022-07-25T04:18:30;8.10;;;5.13;;
25327;SDS011;13279;51.300;12.394;2022-07-25T04:20:58;7.10;;;5.20;;
25327;SDS011;13279;51.300;12.394;2022-07-25T04:23:26;7.40;;;5.40;;
25327;SDS011;13279;51.300;12.394;2022-07-25T04:25:55;7.03;;;5.73;;
25327;SDS011;13279;51.300;12.394;2022-07-25T04:28:23;12.63;;;5.70;;
25327;SDS011;13279;51.300;12.394;2022-07-25T04:30:51;8.23;;;5.33;;
25327;SDS011;13279;51.300;12.394;2022-07-25T04:33:18;9.50;;;5.47;;
25327;SDS011;13279;51.300;12.394;2022-07-25T04:35:46;6.60;;;5.87;;
25327;SDS011;13279;51.300;12.394;2022-07-25T04:38:14;8.13;;;6.23;;
25327;SDS011;13279;51.300;12.394;2022-07-25T04:40:42;7.77;;;6.53;;
25327;SDS011;13279;51.300;12.394;2022-07-25T04:43:11;7.93;;;6.57;;
25327;SDS011;13279;51.300;12.394;2022-07-25T04:45:39;7.03;;;6.07;;
25327;SDS011;13279;51.300;12.394;2022-07-25T04:48:06;7.33;;;5.40;;
25327;SDS011;13279;51.300;12.394;2022-07-25T04:50:34;6.57;;;5.90;;
25327;SDS011;13279;51.300;12.394;2022-07-25T04:53:01;6.50;;;5.80;;
25327;SDS011;13279;51.300;12.394;2022-07-25T04:55:28;7.83;;;6.00;;
25327;SDS011;13279;51.300;12.394;2022-07-25T04:57:56;7.67;;;6.10;;
25327;SDS011;13279;51.300;12.394;2022-07-25T05:00:25;6.90;;;5.23;;
25327;SDS011;13279;51.300;12.394;2022-07-25T05:02:52;7.30;;;5.77;;
25327;SDS011;13279;51.300;12.394;2022-07-25T05:05:20;9.53;;;6.00;;
25327;SDS011;13279;51.300;12.394;2022-07-25T05:07:47;7.80;;;6.17;;
25327;SDS011;13279;51.300;12.394;2022-07-25T05:10:15;8.50;;;6.17;;
25327;SDS011;13279;51.300;12.394;2022-07-25T05:12:43;6.80;;;6.10;;
25327;SDS011;13279;51.300;12.394;2022-07-25T05:15:11;8.13;;;5.83;;
25327;SDS011;13279;51.300;12.394;2022-07-25T05:17:40;12.53;;;6.37;;
25327;SDS011;13279;51.300;12.394;2022-07-25T05:20:08;9.10;;;6.10;;
25327;SDS011;13279;51.300;12.394;2022-07-25T05:22:36;7.83;;;6.43;;
25327;SDS011;13279;51.300;12.394;2022-07-25T05:25:05;6.70;;;6.03;;
25327;SDS011;13279;51.300;12.394;2022-07-25T05:27:34;7.00;;;5.80;;
25327;SDS011;13279;51.300;12.394;2022-07-25T05:30:01;10.83;;;6.67;;
25327;SDS011;13279;51.300;12.394;2022-07-25T05:32:29;7.77;;;6.60;;
25327;SDS011;13279;51.300;12.394;2022-07-25T05:34:58;11.70;;;6.67;;
25327;SDS011;13279;51.300;12.394;2022-07-25T05:37:25;7.00;;;6.30;;
25327;SDS011;13279;51.300;12.394;2022-07-25T05:39:53;6.80;;;5.17;;
25327;SDS011;13279;51.300;12.394;2022-07-25T05:42:21;9.33;;;6.20;;
25327;SDS011;13279;51.300;12.394;2022-07-25T05:44:48;9.33;;;6.20;;
25327;SDS011;13279;51.300;12.394;2022-07-25T05:47:16;9.57;;;6.30;;
25327;SDS011;13279;51.300;12.394;2022-07-25T05:49:44;11.77;;;6.70;;
25327;SDS011;13279;51.300;12.394;2022-07-25T05:52:13;10.83;;;6.50;;
25327;SDS011;13279;51.300;12.394;2022-07-25T05:54:40;11.13;;;6.47;;
25327;SDS011;13279;51.300;12.394;2022-07-25T05:57:07;7.47;;;6.00;;
25327;SDS011;13279;51.300;12.394;2022-07-25T05:59:35;12.97;;;6.47;;
25327;SDS011;13279;51.300;12.394;2022-07-25T06:02:03;7.30;;;6.03;;
25327;SDS011;13279;51.300;12.394;2022-07-25T06:04:30;9.37;;;6.20;;
25327;SDS011;13279;51.300;12.394;2022-07-25T06:06:58;10.43;;;6.60;;
25327;SDS011;13279;51.300;12.394;2022-07-25T06:09:26;11.97;;;6.67;;
25327;SDS011;13279;51.300;12.394;2022-07-25T06:11:55;13.93;;;6.73;;
25327;SDS011;13279;51.300;12.394;2022-07-25T06:14:22;9.83;;;6.53;;
25327;SDS011;13279;51.300;12.394;2022-07-25T06:16:50;15.57;;;7.87;;
25327;SDS011;13279;51.300;12.394;2022-07-25T06:19:17;7.63;;;5.83;;
25327;SDS011;13279;51.300;12.394;2022-07-25T06:21:45;12.80;;;5.90;;
25327;SDS011;13279;51.300;12.394;2022-07-25T06:24:12;9.87;;;6.10;;
25327;SDS011;13279;51.300;12.394;2022-07-25T06:26:41;11.00;;;6.80;;
25327;SDS011;13279;51.300;12.394;2022-07-25T06:29:08;11.10;;;6.80;;
25327;SDS011;13279;51.300;12.394;2022-07-25T06:31:36;6.77;;;5.83;;
25327;SDS011;13279;51.300;12.394;2022-07-25T06:34:04;9.03;;;6.83;;
25327;SDS011;13279;51.300;12.394;2022-07-25T06:36:31;8.30;;;6.40;;
25327;SDS011;13279;51.300;12.394;2022-07-25T06:38:59;9.13;;;6.73;;
25327;SDS011;13279;51.300;12.394;2022-07-25T06:41:26;8.20;;;6.30;;
25327;SDS011;13279;51.300;12.394;2022-07-25T06:43:55;11.80;;;6.17;;
25327;SDS011;13279;51.300;12.394;2022-07-25T06:46:23;11.50;;;6.53;;
25327;SDS011;13279;51.300;12.394;2022-07-25T06:48:54;10.57;;;6.57;;
25327;SDS011;13279;51.300;12.394;2022-07-25T06:51:21;10.77;;;6.40;;
25327;SDS011;13279;51.300;12.394;2022-07-25T06:53:49;9.83;;;6.57;;
25327;SDS011;13279;51.300;12.394;2022-07-25T06:56:17;10.17;;;6.67;;
25327;SDS011;13279;51.300;12.394;2022-07-25T06:58:45;8.00;;;6.03;;
25327;SDS011;13279;51.300;12.394;2022-07-25T07:01:13;10.90;;;6.63;;
25327;SDS011;13279;51.300;12.394;2022-07-25T07:03:41;17.00;;;6.50;;
25327;SDS011;13279;51.300;12.394;2022-07-25T07:06:09;12.93;;;7.00;;
25327;SDS011;13279;51.300;12.394;2022-07-25T07:08:36;13.93;;;7.10;;
25327;SDS011;13279;51.300;12.394;2022-07-25T07:11:07;10.83;;;6.07;;
25327;SDS011;13279;51.300;12.394;2022-07-25T07:13:37;11.10;;;6.87;;
25327;SDS011;13279;51.300;12.394;2022-07-25T07:16:04;11.07;;;6.13;;
25327;SDS011;13279;51.300;12.394;2022-07-25T07:18:34;13.03;;;6.67;;
25327;SDS011;13279;51.300;12.394;2022-07-25T07:21:01;9.87;;;6.20;;
25327;SDS011;13279;51.300;12.394;2022-07-25T07:23:29;13.13;;;6.17;;
25327;SDS011;13279;51.300;12.394;2022-07-25T07:25:56;15.30;;;6.70;;
25327;SDS011;13279;51.300;12.394;2022-07-25T07:28:24;7.00;;;6.13;;
25327;SDS011;13279;51.300;12.394;2022-07-25T07:30:51;15.80;;;7.37;;
25327;SDS011;13279;51.300;12.394;2022-07-25T07:33:19;10.47;;;6.47;;
25327;SDS011;13279;51.300;12.394;2022-07-25T07:35:48;7.90;;;6.70;;
25327;SDS011;13279;51.300;12.394;2022-07-25T07:38:16;13.57;;;6.17;;
25327;SDS011;13279;51.300;12.394;2022-07-25T07:40:43;11.10;;;6.60;;
25327;SDS011;13279;51.300;12.394;2022-07-25T07:43:10;10.77;;;6.50;;
25327;SDS011;13279;51.300;12.394;2022-07-25T07:45:38;13.05;;;6.80;;
25327;SDS011;13279;51.300;12.394;2022-07-25T07:48:07;11.05;;;6.97;;
25327;SDS011;13279;51.300;12.394;2022-07-25T07:50:34;8.00;;;6.15;;
25327;SDS011;13279;51.300;12.394;2022-07-25T07:53:03;8.75;;;5.85;;
25327;SDS011;13279;51.300;12.394;2022-07-25T07:55:31;13.45;;;6.00;;
25327;SDS011;13279;51.300;12.394;2022-07-25T07:58:10;10.30;;;6.13;;
25327;SDS011;13279;51.300;12.394;2022-07-25T08:00:39;9.70;;;6.15;;
25327;SDS011;13279;51.300;12.394;2022-07-25T08:03:07;7.05;;;5.82;;
25327;SDS011;13279;51.300;12.394;2022-07-25T08:05:35;10.43;;;5.80;;
25327;SDS011;13279;51.300;12.394;2022-07-25T08:08:07;7.75;;;5.63;;
25327;SDS011;13279;51.300;12.394;2022-07-25T08:10:37;10.60;;;5.82;;
25327;SDS011;13279;51.300;12.394;2022-07-25T08:13:16;6.22;;;5.63;;
25327;SDS011;13279;51.300;12.394;2022-07-25T08:15:46;9.38;;;5.95;;
25327;SDS011;13279;51.300;12.394;2022-07-25T08:18:15;6.15;;;5.65;;
25327;SDS011;13279;51.300;12.394;2022-07-25T08:20:42;10.10;;;5.13;;
25327;SDS011;13279;51.300;12.394;2022-07-25T08:23:11;6.22;;;5.32;;
25327;SDS011;13279;51.300;12.394;2022-07-25T08:25:40;9.85;;;5.75;;
25327;SDS011;13279;51.300;12.394;2022-07-25T08:28:07;6.43;;;5.80;;
25327;SDS011;13279;51.300;12.394;2022-07-25T08:30:35;9.20;;;5.15;;
25327;SDS011;13279;51.300;12.394;2022-07-25T08:33:05;10.65;;;5.82;;
25327;SDS011;13279;51.300;12.394;2022-07-25T08:35:38;6.10;;;5.50;;
25327;SDS011;13279;51.300;12.394;2022-07-25T08:38:06;9.75;;;5.57;;
25327;SDS011;13279;51.300;12.394;2022-07-25T08:40:37;8.50;;;6.00;;
25327;SDS011;13279;51.300;12.394;2022-07-25T08:43:04;10.55;;;5.43;;
25327;SDS011;13279;51.300;12.394;2022-07-25T08:45:35;14.40;;;5.60;;
25327;SDS011;13279;51.300;12.394;2022-07-25T08:48:06;5.82;;;5.25;;
25327;SDS011;13279;51.300;12.394;2022-07-25T08:50:34;5.93;;;5.13;;
25327;SDS011;13279;51.300;12.394;2022-07-25T08:53:03;10.23;;;6.18;;
25327;SDS011;13279;51.300;12.394;2022-07-25T08:55:31;6.50;;;5.07;;
25327;SDS011;13279;51.300;12.394;2022-07-25T08:58:00;6.25;;;5.55;;
25327;SDS011;13279;51.300;12.394;2022-07-25T09:00:27;8.48;;;5.72;;
25327;SDS011;13279;51.300;12.394;2022-07-25T09:02:56;8.18;;;5.53;;
25327;SDS011;13279;51.300;12.394;2022-07-25T09:05:26;12.00;;;5.78;;
25327;SDS011;13279;51.300;12.394;2022-07-25T09:07:54;5.78;;;5.25;;
25327;SDS011;13279;51.300;12.394;2022-07-25T09:10:23;7.32;;;5.50;;
25327;SDS011;13279;51.300;12.394;2022-07-25T09:12:52;8.32;;;5.30;;
25327;SDS011;13279;51.300;12.394;2022-07-25T09:15:26;10.02;;;4.88;;
25327;SDS011;13279;51.300;12.394;2022-07-25T09:17:55;7.32;;;5.32;;
25327;SDS011;13279;51.300;12.394;2022-07-25T09:20:23;9.15;;;5.50;;
25327;SDS011;13279;51.300;12.394;2022-07-25T09:23:02;6.53;;;5.70;;
25327;SDS011;13279;51.300;12.394;2022-07-25T09:25:30;5.95;;;5.30;;
25327;SDS011;13279;51.300;12.394;2022-07-25T09:28:08;8.68;;;5.18;;
25327;SDS011;13279;51.300;12.394;2022-07-25T09:30:37;8.00;;;5.43;;
25327;SDS011;13279;51.300;12.394;2022-07-25T09:33:05;5.75;;;5.22;;
25327;SDS011;13279;51.300;12.394;2022-07-25T09:35:33;9.40;;;5.72;;
25327;SDS011;13279;51.300;12.394;2022-07-25T09:38:07;6.28;;;5.15;;
25327;SDS011;13279;51.300;12.394;2022-07-25T09:40:36;9.27;;;5.68;;
25327;SDS011;13279;51.300;12.394;2022-07-25T09:43:04;8.00;;;5.20;;
25327;SDS011;13279;51.300;12.394;2022-07-25T09:45:32;5.53;;;5.03;;
25327;SDS011;13279;51.300;12.394;2022-07-25T09:48:01;5.72;;;5.13;;
25327;SDS011;13279;51.300;12.394;2022-07-25T09:50:31;6.50;;;5.85;;
25327;SDS011;13279;51.300;12.394;2022-07-25T09:53:00;6.10;;;5.10;;
25327;SDS011;13279;51.300;12.394;2022-07-25T09:55:28;7.45;;;5.38;;
25327;SDS011;13279;51.300;12.394;2022-07-25T09:57:56;6.60;;;5.57;;
25327;SDS011;13279;51.300;12.394;2022-07-25T10:00:25;10.20;;;5.53;;
25327;SDS011;13279;51.300;12.394;2022-07-25T10:03:04;7.05;;;5.13;;
25327;SDS011;13279;51.300;12.394;2022-07-25T10:08:29;7.07;;;5.32;;
25327;SDS011;13279;51.300;12.394;2022-07-25T10:11:01;7.60;;;5.68;;
25327;SDS011;13279;51.300;12.394;2022-07-25T10:13:30;6.25;;;5.20;;
25327;SDS011;13279;51.300;12.394;2022-07-25T10:15:59;6.00;;;5.40;;
25327;SDS011;13279;51.300;12.394;2022-07-25T10:18:33;6.25;;;5.25;;
25327;SDS011;13279;51.300;12.394;2022-07-25T10:21:07;5.80;;;5.07;;
25327;SDS011;13279;51.300;12.394;2022-07-25T10:23:35;8.07;;;5.20;;
25327;SDS011;13279;51.300;12.394;2022-07-25T10:26:06;8.25;;;5.35;;
25327;SDS011;13279;51.300;12.394;2022-07-25T10:28:42;7.68;;;5.60;;
25327;SDS011;13279;51.300;12.394;2022-07-25T10:31:18;8.40;;;5.18;;
25327;SDS011;13279;51.300;12.394;2022-07-25T10:33:52;6.13;;;5.00;;
25327;SDS011;13279;51.300;12.394;2022-07-25T10:36:21;6.00;;;5.38;;
25327;SDS011;13279;51.300;12.394;2022-07-25T10:38:50;7.00;;;4.75;;
25327;SDS011;13279;51.300;12.394;2022-07-25T10:41:22;6.00;;;5.40;;
25327;SDS011;13279;51.300;12.394;2022-07-25T10:43:54;5.55;;;5.00;;
25327;SDS011;13279;51.300;12.394;2022-07-25T10:46:25;9.15;;;5.75;;
25327;SDS011;13279;51.300;12.394;2022-07-25T10:49:00;5.10;;;4.70;;
25327;SDS011;13279;51.300;12.394;2022-07-25T10:51:30;6.95;;;5.10;;
25327;SDS011;13279;51.300;12.394;2022-07-25T10:53:59;5.97;;;4.95;;
25327;SDS011;13279;51.300;12.394;2022-07-25T10:56:37;5.90;;;5.30;;
25327;SDS011;13279;51.300;12.394;2022-07-25T10:59:23;5.70;;;4.90;;
25327;SDS011;13279;51.300;12.394;2022-07-25T11:01:56;5.20;;;4.70;;
25327;SDS011;13279;51.300;12.394;2022-07-25T11:04:25;5.32;;;4.82;;
25327;SDS011;13279;51.300;12.394;2022-07-25T11:06:53;5.60;;;5.10;;
25327;SDS011;13279;51.300;12.394;2022-07-25T11:09:21;7.18;;;5.03;;
25327;SDS011;13279;51.300;12.394;2022-07-25T11:11:52;7.35;;;4.63;;
25327;SDS011;13279;51.300;12.394;2022-07-25T11:14:22;6.90;;;5.00;;
25327;SDS011;13279;51.300;12.394;2022-07-25T11:16:51;5.20;;;4.80;;
25327;SDS011;13279;51.300;12.394;2022-07-25T11:19:21;6.78;;;4.72;;
25327;SDS011;13279;51.300;12.394;2022-07-25T11:21:52;4.93;;;4.53;;
25327;SDS011;13279;51.300;12.394;2022-07-25T11:24:21;5.40;;;4.68;;
25327;SDS011;13279;51.300;12.394;2022-07-25T11:27:02;6.97;;;4.63;;
25327;SDS011;13279;51.300;12.394;2022-07-25T11:29:30;4.65;;;4.20;;
25327;SDS011;13279;51.300;12.394;2022-07-25T11:31:59;10.77;;;5.43;;
25327;SDS011;13279;51.300;12.394;2022-07-25T11:34:28;5.43;;;4.57;;
25327;SDS011;13279;51.300;12.394;2022-07-25T11:37:00;6.63;;;4.63;;
25327;SDS011;13279;51.300;12.394;2022-07-25T11:39:29;7.93;;;4.97;;
25327;SDS011;13279;51.300;12.394;2022-07-25T11:41:58;7.10;;;4.75;;
25327;SDS011;13279;51.300;12.394;2022-07-25T11:44:30;6.40;;;4.50;;
25327;SDS011;13279;51.300;12.394;2022-07-25T11:46:59;5.55;;;5.10;;
25327;SDS011;13279;51.300;12.394;2022-07-25T11:49:27;6.72;;;4.90;;
25327;SDS011;13279;51.300;12.394;2022-07-25T11:51:55;5.20;;;4.70;;
25327;SDS011;13279;51.300;12.394;2022-07-25T11:54:23;5.25;;;4.85;;
25327;SDS011;13279;51.300;12.394;2022-07-25T11:56:51;6.35;;;4.50;;
25327;SDS011;13279;51.300;12.394;2022-07-25T11:59:18;6.30;;;5.10;;
25327;SDS011;13279;51.300;12.394;2022-07-25T12:01:46;6.32;;;5.10;;
25327;SDS011;13279;51.300;12.394;2022-07-25T12:04:14;5.63;;;5.05;;
25327;SDS011;13279;51.300;12.394;2022-07-25T12:06:43;6.13;;;5.63;;
25327;SDS011;13279;51.300;12.394;2022-07-25T12:09:12;6.68;;;5.20;;
25327;SDS011;13279;51.300;12.394;2022-07-25T12:11:42;6.20;;;5.70;;
25327;SDS011;13279;51.300;12.394;2022-07-25T12:14:10;6.53;;;5.35;;
25327;SDS011;13279;51.300;12.394;2022-07-25T12:16:38;5.75;;;5.15;;
25327;SDS011;13279;51.300;12.394;2022-07-25T12:19:07;6.93;;;5.55;;
25327;SDS011;13279;51.300;12.394;2022-07-25T12:21:36;7.25;;;5.50;;
25327;SDS011;13279;51.300;12.394;2022-07-25T12:24:03;6.43;;;5.45;;
25327;SDS011;13279;51.300;12.394;2022-07-25T12:26:31;5.82;;;5.32;;
25327;SDS011;13279;51.300;12.394;2022-07-25T12:29:00;6.20;;;5.60;;
25327;SDS011;13279;51.300;12.394;2022-07-25T12:31:28;6.28;;;5.68;;
25327;SDS011;13279;51.300;12.394;2022-07-25T12:33:55;7.47;;;5.30;;
25327;SDS011;13279;51.300;12.394;2022-07-25T12:36:23;10.93;;;5.60;;
25327;SDS011;13279;51.300;12.394;2022-07-25T12:38:51;6.07;;;5.20;;
25327;SDS011;13279;51.300;12.394;2022-07-25T12:41:19;5.97;;;5.47;;
25327;SDS011;13279;51.300;12.394;2022-07-25T12:43:48;5.72;;;5.22;;
25327;SDS011;13279;51.300;12.394;2022-07-25T12:46:17;6.00;;;5.40;;
25327;SDS011;13279;51.300;12.394;2022-07-25T12:48:44;7.47;;;5.22;;
25327;SDS011;13279;51.300;12.394;2022-07-25T12:51:11;6.53;;;4.55;;
25327;SDS011;13279;51.300;12.394;2022-07-25T12:53:39;6.38;;;5.20;;
25327;SDS011;13279;51.300;12.394;2022-07-25T12:56:07;6.28;;;5.60;;
25327;SDS011;13279;51.300;12.394;2022-07-25T12:58:34;4.80;;;4.40;;
25327;SDS011;13279;51.300;12.394;2022-07-25T13:01:02;5.43;;;4.82;;
25327;SDS011;13279;51.300;12.394;2022-07-25T13:03:32;8.82;;;5.00;;
25327;SDS011;13279;51.300;12.394;2022-07-25T13:05:59;4.88;;;4.53;;
25327;SDS011;13279;51.300;12.394;2022-07-25T13:08:27;5.28;;;4.40;;
25327;SDS011;13279;51.300;12.394;2022-07-25T13:10:54;5.80;;;4.00;;
25327;SDS011;13279;51.300;12.394;2022-07-25T13:13:22;5.82;;;4.45;;
25327;SDS011;13279;51.300;12.394;2022-07-25T13:15:49;6.50;;;4.30;;
25327;SDS011;13279;51.300;12.394;2022-07-25T13:18:18;5.35;;;4.85;;
25327;SDS011;13279;51.300;12.394;2022-07-25T13:20:47;8.35;;;4.68;;
25327;SDS011;13279;51.300;12.394;2022-07-25T13:23:14;6.32;;;4.78;;
25327;SDS011;13279;51.300;12.394;2022-07-25T13:25:42;6.90;;;4.90;;
25327;SDS011;13279;51.300;12.394;2022-07-25T13:28:10;6.53;;;4.43;;
25327;SDS011;13279;51.300;12.394;2022-07-25T13:30:38;5.40;;;4.90;;
25327;SDS011;13279;51.300;12.394;2022-07-25T13:33:05;5.07;;;4.57;;
25327;SDS011;13279;51.300;12.394;2022-07-25T13:35:34;5.85;;;4.47;;
25327;SDS011;13279;51.300;12.394;2022-07-25T13:38:04;6.38;;;5.10;;
25327;SDS011;13279;51.300;12.394;2022-07-25T13:40:34;5.00;;;4.50;;
25327;SDS011;13279;51.300;12.394;2022-07-25T13:43:06;6.82;;;4.43;;
25327;SDS011;13279;51.300;12.394;2022-07-25T13:45:33;5.28;;;4.78;;
25327;SDS011;13279;51.300;12.394;2022-07-25T13:48:02;5.38;;;4.10;;
25327;SDS011;13279;51.300;12.394;2022-07-25T13:50:30;5.07;;;4.65;;
25327;SDS011;13279;51.300;12.394;2022-07-25T13:52:58;6.85;;;4.50;;
25327;SDS011;13279;51.300;12.394;2022-07-25T13:55:30;8.00;;;4.97;;
25327;SDS011;13279;51.300;12.394;2022-07-25T13:57:57;5.43;;;4.45;;
25327;SDS011;13279;51.300;12.394;2022-07-25T14:00:25;5.38;;;4.25;;
25327;SDS011;13279;51.300;12.394;2022-07-25T14:02:53;4.82;;;4.47;;
25327;SDS011;13279;51.300;12.394;2022-07-25T14:05:20;5.13;;;4.63;;
25327;SDS011;13279;51.300;12.394;2022-07-25T14:07:49;6.80;;;4.95;;
25327;SDS011;13279;51.300;12.394;2022-07-25T14:10:16;7.10;;;4.90;;
25327;SDS011;13279;51.300;12.394;2022-07-25T14:12:45;7.03;;;5.00;;
25327;SDS011;13279;51.300;12.394;2022-07-25T14:15:13;5.10;;;4.63;;
25327;SDS011;13279;51.300;12.394;2022-07-25T14:17:40;4.97;;;4.57;;
25327;SDS011;13279;51.300;12.394;2022-07-25T14:20:08;8.18;;;4.90;;
25327;SDS011;13279;51.300;12.394;2022-07-25T14:22:37;7.63;;;4.88;;
25327;SDS011;13279;51.300;12.394;2022-07-25T14:25:07;5.63;;;4.57;;
25327;SDS011;13279;51.300;12.394;2022-07-25T14:27:35;10.93;;;4.88;;
25327;SDS011;13279;51.300;12.394;2022-07-25T14:30:05;5.00;;;4.50;;
25327;SDS011;13279;51.300;12.394;2022-07-25T14:32:34;5.95;;;4.47;;
25327;SDS011;13279;51.300;12.394;2022-07-25T14:35:02;5.38;;;4.53;;
25327;SDS011;13279;51.300;12.394;2022-07-25T14:37:30;7.57;;;5.30;;
25327;SDS011;13279;51.300;12.394;2022-07-25T14:39:59;7.75;;;4.97;;
25327;SDS011;13279;51.300;12.394;2022-07-25T14:42:27;8.65;;;4.90;;
25327;SDS011;13279;51.300;12.394;2022-07-25T14:44:54;8.90;;;5.40;;
25327;SDS011;13279;51.300;12.394;2022-07-25T14:47:23;12.43;;;5.28;;
25327;SDS011;13279;51.300;12.394;2022-07-25T14:49:51;5.35;;;4.55;;
25327;SDS011;13279;51.300;12.394;2022-07-25T14:52:19;5.10;;;4.60;;
25327;SDS011;13279;51.300;12.394;2022-07-25T14:54:46;5.50;;;5.00;;
25327;SDS011;13279;51.300;12.394;2022-07-25T14:57:14;8.10;;;4.95;;
25327;SDS011;13279;51.300;12.394;2022-07-25T14:59:42;8.00;;;5.03;;
25327;SDS011;13279;51.300;12.394;2022-07-25T15:02:09;6.10;;;5.05;;
25327;SDS011;13279;51.300;12.394;2022-07-25T15:04:38;6.63;;;5.38;;
25327;SDS011;13279;51.300;12.394;2022-07-25T15:07:06;7.03;;;5.15;;
25327;SDS011;13279;51.300;12.394;2022-07-25T15:09:33;5.00;;;4.60;;
25327;SDS011;13279;51.300;12.394;2022-07-25T15:12:01;7.60;;;5.30;;
25327;SDS011;13279;51.300;12.394;2022-07-25T15:14:29;5.32;;;4.82;;
25327;SDS011;13279;51.300;12.394;2022-07-25T15:16:56;5.55;;;4.53;;
25327;SDS011;13279;51.300;12.394;2022-07-25T15:19:24;6.55;;;4.75;;
25327;SDS011;13279;51.300;12.394;2022-07-25T15:21:53;6.25;;;4.82;;
25327;SDS011;13279;51.300;12.394;2022-07-25T15:24:21;5.20;;;4.70;;
25327;SDS011;13279;51.300;12.394;2022-07-25T15:26:48;6.88;;;5.07;;
25327;SDS011;13279;51.300;12.394;2022-07-25T15:29:16;6.05;;;5.10;;
25327;SDS011;13279;51.300;12.394;2022-07-25T15:31:45;5.78;;;5.03;;
25327;SDS011;13279;51.300;12.394;2022-07-25T15:34:13;5.72;;;4.80;;
25327;SDS011;13279;51.300;12.394;2022-07-25T15:36:41;10.77;;;5.28;;
25327;SDS011;13279;51.300;12.394;2022-07-25T15:39:09;5.85;;;5.20;;
25327;SDS011;13279;51.300;12.394;2022-07-25T15:41:37;9.30;;;5.35;;
25327;SDS011;13279;51.300;12.394;2022-07-25T15:44:05;11.25;;;5.30;;
25327;SDS011;13279;51.300;12.394;2022-07-25T15:46:33;7.85;;;5.10;;
25327;SDS011;13279;51.300;12.394;2022-07-25T15:49:01;7.72;;;5.50;;
25327;SDS011;13279;51.300;12.394;2022-07-25T15:51:31;5.68;;;4.97;;
25327;SDS011;13279;51.300;12.394;2022-07-25T15:53:59;9.73;;;5.38;;
25327;SDS011;13279;51.300;12.394;2022-07-25T15:56:28;11.10;;;5.57;;
25327;SDS011;13279;51.300;12.394;2022-07-25T15:58:55;14.85;;;5.88;;
25327;SDS011;13279;51.300;12.394;2022-07-25T16:01:23;9.98;;;5.78;;
25327;SDS011;13279;51.300;12.394;2022-07-25T16:03:51;7.30;;;5.57;;
25327;SDS011;13279;51.300;12.394;2022-07-25T16:06:18;6.55;;;5.70;;
25327;SDS011;13279;51.300;12.394;2022-07-25T16:08:46;7.40;;;6.03;;
25327;SDS011;13279;51.300;12.394;2022-07-25T16:11:22;8.20;;;6.38;;
25327;SDS011;13279;51.300;12.394;2022-07-25T16:13:51;6.57;;;5.97;;
25327;SDS011;13279;51.300;12.394;2022-07-25T16:16:19;6.10;;;5.57;;
25327;SDS011;13279;51.300;12.394;2022-07-25T16:18:47;6.78;;;5.63;;
25327;SDS011;13279;51.300;12.394;2022-07-25T16:21:15;7.55;;;6.38;;
25327;SDS011;13279;51.300;12.394;2022-07-25T16:23:43;6.38;;;5.53;;
25327;SDS011;13279;51.300;12.394;2022-07-25T16:26:12;13.82;;;5.85;;
25327;SDS011;13279;51.300;12.394;2022-07-25T16:28:48;9.60;;;6.32;;
25327;SDS011;13279;51.300;12.394;2022-07-25T16:31:17;39.65;;;6.60;;
25327;SDS011;13279;51.300;12.394;2022-07-25T16:33:45;34.88;;;8.55;;
25327;SDS011;13279;51.300;12.394;2022-07-25T16:36:13;44.65;;;8.80;;
25327;SDS011;13279;51.300;12.394;2022-07-25T16:38:41;27.92;;;8.00;;
25327;SDS011;13279;51.300;12.394;2022-07-25T16:41:09;31.53;;;8.63;;
25327;SDS011;13279;51.300;12.394;2022-07-25T16:43:36;20.37;;;7.73;;
25327;SDS011;13279;51.300;12.394;2022-07-25T16:46:05;22.73;;;7.93;;
25327;SDS011;13279;51.300;12.394;2022-07-25T16:48:34;23.20;;;8.03;;
25327;SDS011;13279;51.300;12.394;2022-07-25T16:51:03;20.73;;;7.80;;
25327;SDS011;13279;51.300;12.394;2022-07-25T16:53:31;17.73;;;7.67;;
25327;SDS011;13279;51.300;12.394;2022-07-25T16:56:00;16.27;;;9.20;;
25327;SDS011;13279;51.300;12.394;2022-07-25T16:58:28;13.83;;;7.43;;
25327;SDS011;13279;51.300;12.394;2022-07-25T17:00:56;22.07;;;8.53;;
25327;SDS011;13279;51.300;12.394;2022-07-25T17:03:24;15.23;;;7.87;;
25327;SDS011;13279;51.300;12.394;2022-07-25T17:05:53;17.83;;;8.03;;
25327;SDS011;13279;51.300;12.394;2022-07-25T17:08:21;13.97;;;7.70;;
25327;SDS011;13279;51.300;12.394;2022-07-25T17:10:49;14.73;;;8.20;;
25327;SDS011;13279;51.300;12.394;2022-07-25T17:13:19;21.60;;;8.70;;
25327;SDS011;13279;51.300;12.394;2022-07-25T17:15:47;19.27;;;8.17;;
25327;SDS011;13279;51.300;12.394;2022-07-25T17:18:15;15.70;;;8.47;;
25327;SDS011;13279;51.300;12.394;2022-07-25T17:20:45;12.70;;;7.83;;
25327;SDS011;13279;51.300;12.394;2022-07-25T17:23:13;15.83;;;8.17;;
25327;SDS011;13279;51.300;12.394;2022-07-25T17:25:41;15.17;;;8.13;;
25327;SDS011;13279;51.300;12.394;2022-07-25T17:28:09;14.00;;;8.13;;
25327;SDS011;13279;51.300;12.394;2022-07-25T17:30:37;12.37;;;8.00;;
25327;SDS011;13279;51.300;12.394;2022-07-25T17:33:05;12.23;;;7.90;;
25327;SDS011;13279;51.300;12.394;2022-07-25T17:35:33;10.83;;;7.50;;
25327;SDS011;13279;51.300;12.394;2022-07-25T17:38:02;18.93;;;8.90;;
25327;SDS011;13279;51.300;12.394;2022-07-25T17:40:31;18.07;;;8.43;;
25327;SDS011;13279;51.300;12.394;2022-07-25T17:42:59;15.83;;;8.20;;
25327;SDS011;13279;51.300;12.394;2022-07-25T17:45:27;17.00;;;8.70;;
25327;SDS011;13279;51.300;12.394;2022-07-25T17:47:55;10.57;;;8.23;;
25327;SDS011;13279;51.300;12.394;2022-07-25T17:50:23;16.40;;;8.20;;
25327;SDS011;13279;51.300;12.394;2022-07-25T17:52:54;15.27;;;8.43;;
25327;SDS011;13279;51.300;12.394;2022-07-25T17:55:22;11.27;;;7.80;;
25327;SDS011;13279;51.300;12.394;2022-07-25T17:57:52;13.60;;;7.83;;
25327;SDS011;13279;51.300;12.394;2022-07-25T18:00:20;13.70;;;8.20;;
25327;SDS011;13279;51.300;12.394;2022-07-25T18:02:49;12.47;;;7.93;;